sensor_id;sensor_type;location;lat;lon;timestamp;pressure;altitude;pressure_sealevel;temperature
15575;BMP180;7888;46.748;8.102;2024-02-23T00:01:06;92493.00;;;12.10
15575;BMP180;7888;46.748;8.102;2024-02-23T00:03:33;92489.00;;;12.00
15575;BMP180;7888;46.748;8.102;2024-02-23T00:06:00;92493.00;;;11.90
15575;BMP180;7888;46.748;8.102;2024-02-23T00:08:26;92469.00;;;11.80
15575;BMP180;7888;46.748;8.102;2024-02-23T00:10:51;92386.00;;;11.60
15575;BMP180;7888;46.748;8.102;2024-02-23T00:13:17;92428.00;;;11.60
15575;BMP180;7888;46.748;8.102;2024-02-23T00:15:43;92378.00;;;11.50
15575;BMP180;7888;46.748;8.102;2024-02-23T00:18:09;92431.00;;;11.40
15575;BMP180;7888;46.748;8.102;2024-02-23T00:20:35;92400.00;;;11.40
15575;BMP180;7888;46.748;8.102;2024-02-23T00:23:02;92476.00;;;11.30
15575;BMP180;7888;46.748;8.102;2024-02-23T00:25:28;92429.00;;;11.30
15575;BMP180;7888;46.748;8.102;2024-02-23T00:27:54;92474.00;;;11.30
15575;BMP180;7888;46.748;8.102;2024-02-23T00:30:20;92422.00;;;11.20
15575;BMP180;7888;46.748;8.102;2024-02-23T00:32:45;92451.00;;;11.20
15575;BMP180;7888;46.748;8.102;2024-02-23T00:35:11;92428.00;;;11.10
15575;BMP180;7888;46.748;8.102;2024-02-23T00:37:37;92502.00;;;11.20
15575;BMP180;7888;46.748;8.102;2024-02-23T00:40:06;92490.00;;;11.30
15575;BMP180;7888;46.748;8.102;2024-02-23T00:42:32;92441.00;;;11.30
15575;BMP180;7888;46.748;8.102;2024-02-23T00:44:58;92476.00;;;11.30
15575;BMP180;7888;46.748;8.102;2024-02-23T00:47:24;92484.00;;;11.40
15575;BMP180;7888;46.748;8.102;2024-02-23T00:49:49;92477.00;;;11.40
15575;BMP180;7888;46.748;8.102;2024-02-23T00:52:16;92470.00;;;11.40
15575;BMP180;7888;46.748;8.102;2024-02-23T00:54:41;92405.00;;;11.40
15575;BMP180;7888;46.748;8.102;2024-02-23T00:57:07;92479.00;;;11.30
15575;BMP180;7888;46.748;8.102;2024-02-23T00:59:33;92439.00;;;11.30
15575;BMP180;7888;46.748;8.102;2024-02-23T01:01:59;92441.00;;;11.30
15575;BMP180;7888;46.748;8.102;2024-02-23T01:04:25;92495.00;;;11.30
15575;BMP180;7888;46.748;8.102;2024-02-23T01:06:51;92447.00;;;11.30
15575;BMP180;7888;46.748;8.102;2024-02-23T01:09:17;92448.00;;;11.30
15575;BMP180;7888;46.748;8.102;2024-02-23T01:11:49;92485.00;;;11.30
15575;BMP180;7888;46.748;8.102;2024-02-23T01:14:15;92470.00;;;11.30
15575;BMP180;7888;46.748;8.102;2024-02-23T01:16:41;92419.00;;;11.30
15575;BMP180;7888;46.748;8.102;2024-02-23T01:19:06;92418.00;;;11.30
15575;BMP180;7888;46.748;8.102;2024-02-23T01:21:32;92466.00;;;11.30
15575;BMP180;7888;46.748;8.102;2024-02-23T01:23:58;92432.00;;;11.30
15575;BMP180;7888;46.748;8.102;2024-02-23T01:26:26;92423.00;;;11.20
15575;BMP180;7888;46.748;8.102;2024-02-23T01:28:53;92466.00;;;11.10
15575;BMP180;7888;46.748;8.102;2024-02-23T01:31:19;92424.00;;;11.00
15575;BMP180;7888;46.748;8.102;2024-02-23T01:33:44;92462.00;;;10.90
15575;BMP180;7888;46.748;8.102;2024-02-23T01:36:10;92449.00;;;10.80
15575;BMP180;7888;46.748;8.102;2024-02-23T01:38:36;92399.00;;;10.80
15575;BMP180;7888;46.748;8.102;2024-02-23T01:41:02;92398.00;;;10.80
15575;BMP180;7888;46.748;8.102;2024-02-23T01:43:28;92393.00;;;10.90
15575;BMP180;7888;46.748;8.102;2024-02-23T01:45:54;92405.00;;;10.90
15575;BMP180;7888;46.748;8.102;2024-02-23T01:48:20;92425.00;;;11.00
15575;BMP180;7888;46.748;8.102;2024-02-23T01:50:47;92404.00;;;11.00
15575;BMP180;7888;46.748;8.102;2024-02-23T01:53:13;92354.00;;;11.00
15575;BMP180;7888;46.748;8.102;2024-02-23T01:55:44;92426.00;;;11.00
15575;BMP180;7888;46.748;8.102;2024-02-23T01:58:11;92371.00;;;11.00
15575;BMP180;7888;46.748;8.102;2024-02-23T02:00:36;92385.00;;;11.00
15575;BMP180;7888;46.748;8.102;2024-02-23T02:03:03;92409.00;;;11.00
15575;BMP180;7888;46.748;8.102;2024-02-23T02:05:29;92343.00;;;11.00
15575;BMP180;7888;46.748;8.102;2024-02-23T02:07:56;92346.00;;;11.00
15575;BMP180;7888;46.748;8.102;2024-02-23T02:10:25;92375.00;;;11.00
15575;BMP180;7888;46.748;8.102;2024-02-23T02:12:52;92388.00;;;11.00
15575;BMP180;7888;46.748;8.102;2024-02-23T02:15:18;92344.00;;;11.00
15575;BMP180;7888;46.748;8.102;2024-02-23T02:17:44;92387.00;;;11.00
15575;BMP180;7888;46.748;8.102;2024-02-23T02:20:12;92384.00;;;10.90
15575;BMP180;7888;46.748;8.102;2024-02-23T02:22:39;92362.00;;;10.90
15575;BMP180;7888;46.748;8.102;2024-02-23T02:25:06;92339.00;;;10.90
15575;BMP180;7888;46.748;8.102;2024-02-23T02:27:32;92361.00;;;10.90
15575;BMP180;7888;46.748;8.102;2024-02-23T02:29:58;92314.00;;;10.90
15575;BMP180;7888;46.748;8.102;2024-02-23T02:32:24;92347.00;;;10.90
15575;BMP180;7888;46.748;8.102;2024-02-23T02:34:50;92317.00;;;10.90
15575;BMP180;7888;46.748;8.102;2024-02-23T02:37:16;92367.00;;;10.90
15575;BMP180;7888;46.748;8.102;2024-02-23T02:39:41;92372.00;;;10.90
15575;BMP180;7888;46.748;8.102;2024-02-23T02:42:07;92355.00;;;10.90
15575;BMP180;7888;46.748;8.102;2024-02-23T02:44:33;92386.00;;;10.80
15575;BMP180;7888;46.748;8.102;2024-02-23T02:46:59;92369.00;;;10.90
15575;BMP180;7888;46.748;8.102;2024-02-23T02:49:25;92368.00;;;10.90
15575;BMP180;7888;46.748;8.102;2024-02-23T02:51:50;92277.00;;;10.90
15575;BMP180;7888;46.748;8.102;2024-02-23T02:54:16;92355.00;;;10.80
15575;BMP180;7888;46.748;8.102;2024-02-23T02:56:43;92320.00;;;10.90
15575;BMP180;7888;46.748;8.102;2024-02-23T02:59:09;92348.00;;;11.00
15575;BMP180;7888;46.748;8.102;2024-02-23T03:01:39;92354.00;;;11.00
15575;BMP180;7888;46.748;8.102;2024-02-23T03:04:05;92303.00;;;10.90
15575;BMP180;7888;46.748;8.102;2024-02-23T03:06:31;92347.00;;;11.00
15575;BMP180;7888;46.748;8.102;2024-02-23T03:08:57;92304.00;;;11.10
15575;BMP180;7888;46.748;8.102;2024-02-23T03:11:22;92340.00;;;11.00
15575;BMP180;7888;46.748;8.102;2024-02-23T03:13:48;92336.00;;;11.00
15575;BMP180;7888;46.748;8.102;2024-02-23T03:16:18;92306.00;;;11.00
15575;BMP180;7888;46.748;8.102;2024-02-23T03:18:44;92359.00;;;11.00
15575;BMP180;7888;46.748;8.102;2024-02-23T03:21:11;92341.00;;;11.00
15575;BMP180;7888;46.748;8.102;2024-02-23T03:23:37;92299.00;;;11.00
15575;BMP180;7888;46.748;8.102;2024-02-23T03:26:03;92295.00;;;11.00
15575;BMP180;7888;46.748;8.102;2024-02-23T03:28:29;92333.00;;;11.00
15575;BMP180;7888;46.748;8.102;2024-02-23T03:30:55;92326.00;;;11.00
15575;BMP180;7888;46.748;8.102;2024-02-23T03:33:20;92323.00;;;11.00
15575;BMP180;7888;46.748;8.102;2024-02-23T03:35:46;92285.00;;;10.90
15575;BMP180;7888;46.748;8.102;2024-02-23T03:38:12;92340.00;;;10.90
15575;BMP180;7888;46.748;8.102;2024-02-23T03:40:38;92287.00;;;10.90
15575;BMP180;7888;46.748;8.102;2024-02-23T03:43:04;92319.00;;;10.80
15575;BMP180;7888;46.748;8.102;2024-02-23T03:45:31;92290.00;;;10.80
15575;BMP180;7888;46.748;8.102;2024-02-23T03:47:57;92326.00;;;10.80
15575;BMP180;7888;46.748;8.102;2024-02-23T03:50:23;92271.00;;;10.80
15575;BMP180;7888;46.748;8.102;2024-02-23T03:52:48;92319.00;;;10.80
15575;BMP180;7888;46.748;8.102;2024-02-23T03:55:14;92325.00;;;10.80
15575;BMP180;7888;46.748;8.102;2024-02-23T03:57:40;92332.00;;;10.80
15575;BMP180;7888;46.748;8.102;2024-02-23T04:00:06;92346.00;;;10.70
15575;BMP180;7888;46.748;8.102;2024-02-23T04:02:34;92355.00;;;10.70
15575;BMP180;7888;46.748;8.102;2024-02-23T04:05:00;92337.00;;;10.70
15575;BMP180;7888;46.748;8.102;2024-02-23T04:07:26;92292.00;;;10.70
15575;BMP180;7888;46.748;8.102;2024-02-23T04:09:51;92335.00;;;10.60
15575;BMP180;7888;46.748;8.102;2024-02-23T04:12:21;92295.00;;;10.60
15575;BMP180;7888;46.748;8.102;2024-02-23T04:14:47;92322.00;;;10.60
15575;BMP180;7888;46.748;8.102;2024-02-23T04:17:14;92318.00;;;10.50
15575;BMP180;7888;46.748;8.102;2024-02-23T04:19:43;92313.00;;;10.40
15575;BMP180;7888;46.748;8.102;2024-02-23T04:22:09;92289.00;;;10.50
15575;BMP180;7888;46.748;8.102;2024-02-23T04:24:40;92317.00;;;10.40
15575;BMP180;7888;46.748;8.102;2024-02-23T04:27:07;92331.00;;;10.20
15575;BMP180;7888;46.748;8.102;2024-02-23T04:29:34;92292.00;;;10.50
15575;BMP180;7888;46.748;8.102;2024-02-23T04:32:01;92340.00;;;10.50
15575;BMP180;7888;46.748;8.102;2024-02-23T04:34:27;92346.00;;;10.40
15575;BMP180;7888;46.748;8.102;2024-02-23T04:36:54;92297.00;;;10.40
15575;BMP180;7888;46.748;8.102;2024-02-23T04:39:20;92301.00;;;10.50
15575;BMP180;7888;46.748;8.102;2024-02-23T04:41:46;92354.00;;;10.50
15575;BMP180;7888;46.748;8.102;2024-02-23T04:44:12;92304.00;;;10.50
15575;BMP180;7888;46.748;8.102;2024-02-23T04:46:37;92311.00;;;10.60
15575;BMP180;7888;46.748;8.102;2024-02-23T04:49:03;92273.00;;;10.60
15575;BMP180;7888;46.748;8.102;2024-02-23T04:51:29;92292.00;;;10.50
15575;BMP180;7888;46.748;8.102;2024-02-23T04:53:55;92364.00;;;10.60
15575;BMP180;7888;46.748;8.102;2024-02-23T04:56:21;92317.00;;;10.60
15575;BMP180;7888;46.748;8.102;2024-02-23T04:58:47;92375.00;;;10.60
15575;BMP180;7888;46.748;8.102;2024-02-23T05:01:13;92371.00;;;10.60
15575;BMP180;7888;46.748;8.102;2024-02-23T05:03:39;92369.00;;;10.60
15575;BMP180;7888;46.748;8.102;2024-02-23T05:06:05;92322.00;;;10.60
15575;BMP180;7888;46.748;8.102;2024-02-23T05:08:31;92327.00;;;10.60
15575;BMP180;7888;46.748;8.102;2024-02-23T05:10:57;92333.00;;;10.70
15575;BMP180;7888;46.748;8.102;2024-02-23T05:13:23;92377.00;;;10.70
15575;BMP180;7888;46.748;8.102;2024-02-23T05:15:49;92383.00;;;10.60
15575;BMP180;7888;46.748;8.102;2024-02-23T05:18:15;92323.00;;;10.70
15575;BMP180;7888;46.748;8.102;2024-02-23T05:20:41;92368.00;;;10.70
15575;BMP180;7888;46.748;8.102;2024-02-23T05:23:08;92320.00;;;10.70
15575;BMP180;7888;46.748;8.102;2024-02-23T05:25:34;92351.00;;;10.70
15575;BMP180;7888;46.748;8.102;2024-02-23T05:28:00;92302.00;;;10.70
15575;BMP180;7888;46.748;8.102;2024-02-23T05:30:26;92320.00;;;10.60
15575;BMP180;7888;46.748;8.102;2024-02-23T05:32:57;92335.00;;;10.70
15575;BMP180;7888;46.748;8.102;2024-02-23T05:35:27;92255.00;;;10.70
15575;BMP180;7888;46.748;8.102;2024-02-23T05:37:53;92321.00;;;10.70
15575;BMP180;7888;46.748;8.102;2024-02-23T05:40:19;92280.00;;;10.60
15575;BMP180;7888;46.748;8.102;2024-02-23T05:42:44;92262.00;;;10.40
15575;BMP180;7888;46.748;8.102;2024-02-23T05:45:10;92318.00;;;10.50
15575;BMP180;7888;46.748;8.102;2024-02-23T05:47:37;92311.00;;;10.50
15575;BMP180;7888;46.748;8.102;2024-02-23T05:50:05;92280.00;;;10.50
15575;BMP180;7888;46.748;8.102;2024-02-23T05:52:34;92284.00;;;10.50
15575;BMP180;7888;46.748;8.102;2024-02-23T05:55:00;92319.00;;;10.50
15575;BMP180;7888;46.748;8.102;2024-02-23T05:57:27;92321.00;;;10.40
15575;BMP180;7888;46.748;8.102;2024-02-23T05:59:53;92293.00;;;10.40
15575;BMP180;7888;46.748;8.102;2024-02-23T06:02:21;92348.00;;;10.40
15575;BMP180;7888;46.748;8.102;2024-02-23T06:04:47;92300.00;;;10.40
15575;BMP180;7888;46.748;8.102;2024-02-23T06:07:14;92327.00;;;10.40
15575;BMP180;7888;46.748;8.102;2024-02-23T06:09:43;92326.00;;;10.30
15575;BMP180;7888;46.748;8.102;2024-02-23T06:12:09;92344.00;;;10.40
15575;BMP180;7888;46.748;8.102;2024-02-23T06:14:36;92334.00;;;10.40
15575;BMP180;7888;46.748;8.102;2024-02-23T06:17:02;92341.00;;;10.40
15575;BMP180;7888;46.748;8.102;2024-02-23T06:19:28;92339.00;;;10.40
15575;BMP180;7888;46.748;8.102;2024-02-23T06:21:54;92313.00;;;10.40
15575;BMP180;7888;46.748;8.102;2024-02-23T06:24:20;92297.00;;;10.30
15575;BMP180;7888;46.748;8.102;2024-02-23T06:26:46;92348.00;;;10.30
15575;BMP180;7888;46.748;8.102;2024-02-23T06:29:14;92337.00;;;10.30
15575;BMP180;7888;46.748;8.102;2024-02-23T06:31:40;92332.00;;;10.20
15575;BMP180;7888;46.748;8.102;2024-02-23T06:34:07;92331.00;;;10.20
15575;BMP180;7888;46.748;8.102;2024-02-23T06:36:33;92344.00;;;10.20
15575;BMP180;7888;46.748;8.102;2024-02-23T06:38:59;92340.00;;;10.20
15575;BMP180;7888;46.748;8.102;2024-02-23T06:41:25;92342.00;;;10.20
15575;BMP180;7888;46.748;8.102;2024-02-23T06:43:51;92347.00;;;10.20
15575;BMP180;7888;46.748;8.102;2024-02-23T06:46:19;92350.00;;;10.20
15575;BMP180;7888;46.748;8.102;2024-02-23T06:48:48;92364.00;;;10.30
15575;BMP180;7888;46.748;8.102;2024-02-23T06:51:14;92357.00;;;10.30
15575;BMP180;7888;46.748;8.102;2024-02-23T06:53:41;92322.00;;;10.40
15575;BMP180;7888;46.748;8.102;2024-02-23T06:56:07;92336.00;;;10.40
15575;BMP180;7888;46.748;8.102;2024-02-23T06:58:32;92374.00;;;10.40
15575;BMP180;7888;46.748;8.102;2024-02-23T07:00:58;92368.00;;;10.40
15575;BMP180;7888;46.748;8.102;2024-02-23T07:03:25;92374.00;;;10.50
15575;BMP180;7888;46.748;8.102;2024-02-23T07:05:51;92325.00;;;10.40
15575;BMP180;7888;46.748;8.102;2024-02-23T07:08:17;92340.00;;;10.40
15575;BMP180;7888;46.748;8.102;2024-02-23T07:10:43;92384.00;;;10.50
15575;BMP180;7888;46.748;8.102;2024-02-23T07:13:10;92378.00;;;10.40
15575;BMP180;7888;46.748;8.102;2024-02-23T07:15:36;92362.00;;;10.50
15575;BMP180;7888;46.748;8.102;2024-02-23T07:18:02;92377.00;;;10.50
15575;BMP180;7888;46.748;8.102;2024-02-23T07:20:28;92324.00;;;10.50
15575;BMP180;7888;46.748;8.102;2024-02-23T07:22:53;92364.00;;;10.50
15575;BMP180;7888;46.748;8.102;2024-02-23T07:25:20;92375.00;;;10.50
15575;BMP180;7888;46.748;8.102;2024-02-23T07:27:47;92395.00;;;10.50
15575;BMP180;7888;46.748;8.102;2024-02-23T07:30:16;92388.00;;;10.50
15575;BMP180;7888;46.748;8.102;2024-02-23T07:32:43;92401.00;;;10.50
15575;BMP180;7888;46.748;8.102;2024-02-23T07:35:10;92372.00;;;10.50
15575;BMP180;7888;46.748;8.102;2024-02-23T07:37:39;92354.00;;;10.50
15575;BMP180;7888;46.748;8.102;2024-02-23T07:40:06;92353.00;;;10.50
15575;BMP180;7888;46.748;8.102;2024-02-23T07:42:32;92355.00;;;10.60
15575;BMP180;7888;46.748;8.102;2024-02-23T07:44:58;92360.00;;;10.60
15575;BMP180;7888;46.748;8.102;2024-02-23T07:47:24;92365.00;;;10.60
15575;BMP180;7888;46.748;8.102;2024-02-23T07:49:52;92354.00;;;10.60
15575;BMP180;7888;46.748;8.102;2024-02-23T07:52:19;92400.00;;;10.60
15575;BMP180;7888;46.748;8.102;2024-02-23T07:54:45;92366.00;;;10.60
15575;BMP180;7888;46.748;8.102;2024-02-23T07:57:10;92375.00;;;10.60
15575;BMP180;7888;46.748;8.102;2024-02-23T07:59:36;92377.00;;;10.60
15575;BMP180;7888;46.748;8.102;2024-02-23T08:02:02;92373.00;;;10.50
15575;BMP180;7888;46.748;8.102;2024-02-23T08:04:28;92390.00;;;10.50
15575;BMP180;7888;46.748;8.102;2024-02-23T08:06:53;92291.00;;;10.50
15575;BMP180;7888;46.748;8.102;2024-02-23T08:09:19;92342.00;;;10.50
15575;BMP180;7888;46.748;8.102;2024-02-23T08:11:47;92330.00;;;10.60
15575;BMP180;7888;46.748;8.102;2024-02-23T08:14:13;92327.00;;;10.60
15575;BMP180;7888;46.748;8.102;2024-02-23T08:16:39;92301.00;;;10.70
15575;BMP180;7888;46.748;8.102;2024-02-23T08:19:04;92333.00;;;10.70
15575;BMP180;7888;46.748;8.102;2024-02-23T08:21:30;92334.00;;;10.80
15575;BMP180;7888;46.748;8.102;2024-02-23T08:23:56;92374.00;;;10.70
15575;BMP180;7888;46.748;8.102;2024-02-23T08:26:21;92348.00;;;10.70
15575;BMP180;7888;46.748;8.102;2024-02-23T08:28:47;92377.00;;;10.70
15575;BMP180;7888;46.748;8.102;2024-02-23T08:31:13;92385.00;;;10.70
15575;BMP180;7888;46.748;8.102;2024-02-23T08:33:39;92385.00;;;10.70
15575;BMP180;7888;46.748;8.102;2024-02-23T08:36:05;92332.00;;;10.70
15575;BMP180;7888;46.748;8.102;2024-02-23T08:38:32;92372.00;;;10.80
15575;BMP180;7888;46.748;8.102;2024-02-23T08:40:58;92334.00;;;10.80
15575;BMP180;7888;46.748;8.102;2024-02-23T08:43:24;92308.00;;;10.90
15575;BMP180;7888;46.748;8.102;2024-02-23T08:45:50;92378.00;;;10.90
15575;BMP180;7888;46.748;8.102;2024-02-23T08:48:16;92385.00;;;10.90
15575;BMP180;7888;46.748;8.102;2024-02-23T08:50:44;92332.00;;;10.80
15575;BMP180;7888;46.748;8.102;2024-02-23T08:53:10;92376.00;;;10.80
15575;BMP180;7888;46.748;8.102;2024-02-23T08:55:36;92328.00;;;10.80
15575;BMP180;7888;46.748;8.102;2024-02-23T08:58:01;92365.00;;;10.80
15575;BMP180;7888;46.748;8.102;2024-02-23T09:00:27;92364.00;;;10.80
15575;BMP180;7888;46.748;8.102;2024-02-23T09:02:54;92360.00;;;10.80
15575;BMP180;7888;46.748;8.102;2024-02-23T09:05:20;92364.00;;;10.80
15575;BMP180;7888;46.748;8.102;2024-02-23T09:07:46;92374.00;;;10.60
15575;BMP180;7888;46.748;8.102;2024-02-23T09:10:12;92387.00;;;10.80
15575;BMP180;7888;46.748;8.102;2024-02-23T09:12:38;92374.00;;;10.80
15575;BMP180;7888;46.748;8.102;2024-02-23T09:15:04;92372.00;;;10.80
15575;BMP180;7888;46.748;8.102;2024-02-23T09:17:31;92369.00;;;10.80
15575;BMP180;7888;46.748;8.102;2024-02-23T09:19:57;92345.00;;;10.80
15575;BMP180;7888;46.748;8.102;2024-02-23T09:22:23;92312.00;;;10.80
15575;BMP180;7888;46.748;8.102;2024-02-23T09:24:49;92351.00;;;10.90
15575;BMP180;7888;46.748;8.102;2024-02-23T09:27:15;92310.00;;;10.90
15575;BMP180;7888;46.748;8.102;2024-02-23T09:29:41;92350.00;;;10.90
15575;BMP180;7888;46.748;8.102;2024-02-23T09:32:08;92303.00;;;11.00
15575;BMP180;7888;46.748;8.102;2024-02-23T09:34:33;92289.00;;;11.00
15575;BMP180;7888;46.748;8.102;2024-02-23T09:36:59;92275.00;;;11.00
15575;BMP180;7888;46.748;8.102;2024-02-23T09:39:25;92304.00;;;11.10
15575;BMP180;7888;46.748;8.102;2024-02-23T09:41:55;92347.00;;;11.20
15575;BMP180;7888;46.748;8.102;2024-02-23T09:44:22;92330.00;;;11.30
15575;BMP180;7888;46.748;8.102;2024-02-23T09:46:49;92292.00;;;11.40
15575;BMP180;7888;46.748;8.102;2024-02-23T09:49:18;92337.00;;;11.50
15575;BMP180;7888;46.748;8.102;2024-02-23T09:51:44;92310.00;;;11.50
15575;BMP180;7888;46.748;8.102;2024-02-23T09:54:10;92315.00;;;11.60
15575;BMP180;7888;46.748;8.102;2024-02-23T09:56:36;92276.00;;;11.60
15575;BMP180;7888;46.748;8.102;2024-02-23T09:59:03;92341.00;;;11.50
15575;BMP180;7888;46.748;8.102;2024-02-23T10:01:31;92330.00;;;11.60
15575;BMP180;7888;46.748;8.102;2024-02-23T10:04:00;92329.00;;;11.70
15575;BMP180;7888;46.748;8.102;2024-02-23T10:06:27;92307.00;;;11.90
15575;BMP180;7888;46.748;8.102;2024-02-23T10:08:53;92304.00;;;11.90
15575;BMP180;7888;46.748;8.102;2024-02-23T10:11:24;92333.00;;;11.90
15575;BMP180;7888;46.748;8.102;2024-02-23T10:13:50;92268.00;;;12.00
15575;BMP180;7888;46.748;8.102;2024-02-23T10:16:18;92323.00;;;12.00
15575;BMP180;7888;46.748;8.102;2024-02-23T10:18:49;92317.00;;;12.10
15575;BMP180;7888;46.748;8.102;2024-02-23T10:21:18;92327.00;;;12.10
15575;BMP180;7888;46.748;8.102;2024-02-23T10:23:48;92278.00;;;12.20
15575;BMP180;7888;46.748;8.102;2024-02-23T10:26:15;92278.00;;;12.20
15575;BMP180;7888;46.748;8.102;2024-02-23T10:28:45;92323.00;;;12.40
15575;BMP180;7888;46.748;8.102;2024-02-23T10:31:12;92276.00;;;12.40
15575;BMP180;7888;46.748;8.102;2024-02-23T10:33:38;92309.00;;;12.50
15575;BMP180;7888;46.748;8.102;2024-02-23T10:36:06;92272.00;;;12.60
15575;BMP180;7888;46.748;8.102;2024-02-23T10:38:37;92308.00;;;12.70
15575;BMP180;7888;46.748;8.102;2024-02-23T10:41:05;92242.00;;;12.80
15575;BMP180;7888;46.748;8.102;2024-02-23T10:43:44;92305.00;;;12.80
15575;BMP180;7888;46.748;8.102;2024-02-23T10:46:12;92297.00;;;13.10
15575;BMP180;7888;46.748;8.102;2024-02-23T10:48:41;92293.00;;;13.20
15575;BMP180;7888;46.748;8.102;2024-02-23T10:51:08;92254.00;;;13.30
15575;BMP180;7888;46.748;8.102;2024-02-23T10:53:36;92268.00;;;13.40
15575;BMP180;7888;46.748;8.102;2024-02-23T10:56:05;92301.00;;;13.50
15575;BMP180;7888;46.748;8.102;2024-02-23T10:58:32;92276.00;;;13.60
15575;BMP180;7888;46.748;8.102;2024-02-23T11:01:05;92287.00;;;13.70
15575;BMP180;7888;46.748;8.102;2024-02-23T11:03:35;92244.00;;;13.90
15575;BMP180;7888;46.748;8.102;2024-02-23T11:06:06;92282.00;;;14.00
15575;BMP180;7888;46.748;8.102;2024-02-23T11:08:35;92282.00;;;14.10
15575;BMP180;7888;46.748;8.102;2024-02-23T11:11:09;92248.00;;;14.20
15575;BMP180;7888;46.748;8.102;2024-02-23T11:13:39;92240.00;;;14.30
15575;BMP180;7888;46.748;8.102;2024-02-23T11:16:07;92264.00;;;14.50
15575;BMP180;7888;46.748;8.102;2024-02-23T11:18:39;92276.00;;;14.60
15575;BMP180;7888;46.748;8.102;2024-02-23T11:21:09;92275.00;;;14.70
15575;BMP180;7888;46.748;8.102;2024-02-23T11:23:48;92248.00;;;14.90
15575;BMP180;7888;46.748;8.102;2024-02-23T11:26:15;92269.00;;;15.10
15575;BMP180;7888;46.748;8.102;2024-02-23T11:28:51;92284.00;;;15.10
15575;BMP180;7888;46.748;8.102;2024-02-23T11:31:24;92276.00;;;15.20
15575;BMP180;7888;46.748;8.102;2024-02-23T11:33:55;92240.00;;;15.40
15575;BMP180;7888;46.748;8.102;2024-02-23T11:36:30;92277.00;;;15.50
15575;BMP180;7888;46.748;8.102;2024-02-23T11:39:00;92274.00;;;15.60
15575;BMP180;7888;46.748;8.102;2024-02-23T11:41:28;92271.00;;;15.80
15575;BMP180;7888;46.748;8.102;2024-02-23T11:43:55;92224.00;;;15.90
15575;BMP180;7888;46.748;8.102;2024-02-23T11:46:22;92276.00;;;15.90
15575;BMP180;7888;46.748;8.102;2024-02-23T11:48:49;92240.00;;;16.00
15575;BMP180;7888;46.748;8.102;2024-02-23T11:51:22;92269.00;;;16.00
15575;BMP180;7888;46.748;8.102;2024-02-23T11:53:49;92269.00;;;16.10
15575;BMP180;7888;46.748;8.102;2024-02-23T11:56:16;92216.00;;;16.10
15575;BMP180;7888;46.748;8.102;2024-02-23T11:58:42;92273.00;;;16.20
15575;BMP180;7888;46.748;8.102;2024-02-23T12:01:08;92223.00;;;16.30
15575;BMP180;7888;46.748;8.102;2024-02-23T12:03:34;92248.00;;;16.40
15575;BMP180;7888;46.748;8.102;2024-02-23T12:06:01;92237.00;;;16.40
15575;BMP180;7888;46.748;8.102;2024-02-23T12:08:31;92267.00;;;16.50
15575;BMP180;7888;46.748;8.102;2024-02-23T12:11:08;92228.00;;;16.60
15575;BMP180;7888;46.748;8.102;2024-02-23T12:13:38;92255.00;;;16.70
15575;BMP180;7888;46.748;8.102;2024-02-23T12:16:06;92240.00;;;16.80
15575;BMP180;7888;46.748;8.102;2024-02-23T12:18:36;92252.00;;;16.90
15575;BMP180;7888;46.748;8.102;2024-02-23T12:21:07;92216.00;;;17.00
15575;BMP180;7888;46.748;8.102;2024-02-23T12:23:44;92232.00;;;17.10
15575;BMP180;7888;46.748;8.102;2024-02-23T12:26:12;92265.00;;;17.20
15575;BMP180;7888;46.748;8.102;2024-02-23T12:28:39;92252.00;;;17.30
15575;BMP180;7888;46.748;8.102;2024-02-23T12:31:06;92258.00;;;17.40
15575;BMP180;7888;46.748;8.102;2024-02-23T12:33:34;92245.00;;;17.60
15575;BMP180;7888;46.748;8.102;2024-02-23T12:36:01;92250.00;;;17.70
15575;BMP180;7888;46.748;8.102;2024-02-23T12:38:28;92229.00;;;17.90
15575;BMP180;7888;46.748;8.102;2024-02-23T12:40:54;92243.00;;;18.10
15575;BMP180;7888;46.748;8.102;2024-02-23T12:43:20;92236.00;;;18.30
15575;BMP180;7888;46.748;8.102;2024-02-23T12:45:54;92241.00;;;18.40
15575;BMP180;7888;46.748;8.102;2024-02-23T12:48:20;92210.00;;;18.40
15575;BMP180;7888;46.748;8.102;2024-02-23T12:50:47;92180.00;;;18.40
15575;BMP180;7888;46.748;8.102;2024-02-23T12:53:36;92233.00;;;18.30
15575;BMP180;7888;46.748;8.102;2024-02-23T12:58:31;92207.00;;;18.40
15575;BMP180;7888;46.748;8.102;2024-02-23T13:00:57;92221.00;;;18.40
15575;BMP180;7888;46.748;8.102;2024-02-23T13:03:27;92200.00;;;18.40
15575;BMP180;7888;46.748;8.102;2024-02-23T13:05:57;92221.00;;;18.40
15575;BMP180;7888;46.748;8.102;2024-02-23T13:08:24;92198.00;;;18.40
15575;BMP180;7888;46.748;8.102;2024-02-23T13:10:51;92233.00;;;18.40
15575;BMP180;7888;46.748;8.102;2024-02-23T13:13:18;92230.00;;;18.40
15575;BMP180;7888;46.748;8.102;2024-02-23T13:15:45;92185.00;;;18.50
15575;BMP180;7888;46.748;8.102;2024-02-23T13:18:10;92199.00;;;18.60
15575;BMP180;7888;46.748;8.102;2024-02-23T13:20:40;92208.00;;;18.70
15575;BMP180;7888;46.748;8.102;2024-02-23T13:23:10;92229.00;;;18.80
15575;BMP180;7888;46.748;8.102;2024-02-23T13:25:40;92226.00;;;18.90
15575;BMP180;7888;46.748;8.102;2024-02-23T13:28:07;92217.00;;;19.00
15575;BMP180;7888;46.748;8.102;2024-02-23T13:30:35;92214.00;;;19.00
15575;BMP180;7888;46.748;8.102;2024-02-23T13:33:01;92204.00;;;19.00
15575;BMP180;7888;46.748;8.102;2024-02-23T13:35:27;92207.00;;;19.10
15575;BMP180;7888;46.748;8.102;2024-02-23T13:37:54;92168.00;;;19.00
15575;BMP180;7888;46.748;8.102;2024-02-23T13:40:20;92176.00;;;19.00
15575;BMP180;7888;46.748;8.102;2024-02-23T13:42:47;92209.00;;;19.10
15575;BMP180;7888;46.748;8.102;2024-02-23T13:45:16;92208.00;;;19.20
15575;BMP180;7888;46.748;8.102;2024-02-23T13:47:54;92203.00;;;19.10
15575;BMP180;7888;46.748;8.102;2024-02-23T13:50:20;92203.00;;;19.10
15575;BMP180;7888;46.748;8.102;2024-02-23T13:52:48;92170.00;;;19.20
15575;BMP180;7888;46.748;8.102;2024-02-23T13:55:13;92203.00;;;19.30
15575;BMP180;7888;46.748;8.102;2024-02-23T13:57:40;92197.00;;;19.30
15575;BMP180;7888;46.748;8.102;2024-02-23T14:00:06;92186.00;;;19.40
15575;BMP180;7888;46.748;8.102;2024-02-23T14:02:38;92188.00;;;19.40
15575;BMP180;7888;46.748;8.102;2024-02-23T14:05:07;92179.00;;;19.60
15575;BMP180;7888;46.748;8.102;2024-02-23T14:07:36;92145.00;;;19.60
15575;BMP180;7888;46.748;8.102;2024-02-23T14:10:03;92156.00;;;19.70
15575;BMP180;7888;46.748;8.102;2024-02-23T14:12:29;92187.00;;;19.70
15575;BMP180;7888;46.748;8.102;2024-02-23T14:14:55;92157.00;;;19.80
15575;BMP180;7888;46.748;8.102;2024-02-23T14:17:21;92140.00;;;19.90
15575;BMP180;7888;46.748;8.102;2024-02-23T14:19:47;92192.00;;;19.90
15575;BMP180;7888;46.748;8.102;2024-02-23T14:22:13;92189.00;;;20.10